Time;durP1;ratioP1;P1;durP2;ratioP2;P2;SDS_P1;SDS_P2;PMS_P1;PMS_P2;Temp;Humidity;BMP_temperature;BMP_pressure;BME280_temperature;BME280_humidity;BME280_pressure;Samples;Min_cycle;Max_cycle;Signal;HPM_P1;HPM_P2
2022/11/07 00:01:44;;;;;;;45.70;31.23;;;;;;;10.79;100.00;94879.84;5040919;28;20359;-87
2022/11/07 00:04:12;;;;;;;43.67;29.73;;;;;;;10.88;100.00;94877.78;5037102;28;20295;-86
2022/11/07 00:06:39;;;;;;;45.97;29.30;;;;;;;10.92;100.00;94878.94;5040727;28;20206;-89
2022/11/07 00:09:06;;;;;;;45.70;28.10;;;;;;;10.97;100.00;94889.50;5041028;28;20332;-89
2022/11/07 00:11:33;;;;;;;47.87;27.37;;;;;;;10.94;100.00;94881.34;5032592;28;20217;-91
2022/11/07 00:14:00;;;;;;;49.70;29.57;;;;;;;11.02;100.00;94886.25;5045760;28;20281;-91
2022/11/07 00:16:28;;;;;;;41.07;28.37;;;;;;;11.11;100.00;94884.97;5033784;28;20203;-90
2022/11/07 00:18:55;;;;;;;46.77;27.60;;;;;;;11.15;100.00;94884.31;5040851;28;20198;-83
2022/11/07 00:21:23;;;;;;;41.83;28.50;;;;;;;10.97;100.00;94886.88;5033611;28;20275;-81
2022/11/07 00:23:54;;;;;;;44.27;28.33;;;;;;;10.59;100.00;94883.63;5023010;28;20206;-81
2022/11/07 00:26:21;;;;;;;39.57;27.30;;;;;;;10.31;100.00;94878.03;5023068;28;20195;-79
2022/11/07 00:28:48;;;;;;;47.10;29.57;;;;;;;10.21;100.00;94884.50;5019290;28;20649;-79
2022/11/07 00:31:16;;;;;;;49.87;29.90;;;;;;;10.29;100.00;94893.03;5025607;28;20195;-79
2022/11/07 00:33:43;;;;;;;45.23;29.50;;;;;;;10.37;100.00;94887.59;5024950;28;20207;-82
2022/11/07 00:36:16;;;;;;;44.27;29.53;;;;;;;10.46;100.00;94894.13;5034059;28;20202;-82
2022/11/07 00:38:45;;;;;;;43.47;28.17;;;;;;;10.58;100.00;94889.84;5022847;28;20227;-81
2022/11/07 00:41:12;;;;;;;43.13;29.20;;;;;;;10.61;100.00;94894.63;5037843;28;20209;-81
2022/11/07 00:43:39;;;;;;;49.77;29.50;;;;;;;10.65;100.00;94886.16;5033229;28;20236;-82
2022/11/07 00:46:08;;;;;;;50.87;30.33;;;;;;;10.62;100.00;94878.03;5034128;28;20655;-88
2022/11/07 00:48:35;;;;;;;43.70;28.40;;;;;;;10.63;100.00;94877.78;5026798;28;20199;-89
2022/11/07 00:51:06;;;;;;;46.47;29.37;;;;;;;10.71;100.00;94892.31;5028959;28;20261;-90
2022/11/07 00:53:33;;;;;;;43.07;28.43;;;;;;;10.67;100.00;94886.78;5026460;28;20235;-90
2022/11/07 00:56:05;;;;;;;42.97;27.40;;;;;;;10.74;100.00;94886.69;5026739;28;20203;-89
2022/11/07 00:58:32;;;;;;;41.57;26.23;;;;;;;10.65;100.00;94882.75;5037170;28;20286;-88
2022/11/07 01:01:00;;;;;;;40.00;27.37;;;;;;;10.51;100.00;94883.88;5039145;28;20201;-90
2022/11/07 01:06:11;;;;;;;45.57;27.57;;;;;;;10.28;100.00;94868.88;5032843;28;20281;-85
2022/11/07 01:08:38;;;;;;;45.00;28.97;;;;;;;10.01;100.00;94878.59;5035828;28;20210;-86
2022/11/07 01:11:08;;;;;;;40.67;26.80;;;;;;;9.72;100.00;94861.00;5039995;28;20230;-85
2022/11/07 01:13:36;;;;;;;49.33;28.00;;;;;;;9.49;100.00;94855.50;5033994;28;20213;-86
2022/11/07 01:16:03;;;;;;;42.70;27.77;;;;;;;9.62;100.00;94851.03;5035340;28;20246;-85
2022/11/07 01:18:30;;;;;;;45.10;28.80;;;;;;;9.81;100.00;94859.75;5032436;28;20194;-86
2022/11/07 01:20:56;;;;;;;49.93;29.43;;;;;;;9.78;100.00;94848.97;5030410;28;20206;-86
2022/11/07 01:23:23;;;;;;;44.17;28.43;;;;;;;9.92;100.00;94866.88;5031222;28;20239;-85
2022/11/07 01:25:50;;;;;;;40.83;27.23;;;;;;;9.98;100.00;94860.84;5028232;28;20210;-85
2022/11/07 01:28:19;;;;;;;45.47;28.43;;;;;;;10.01;100.00;94862.22;5036604;28;20199;-85
2022/11/07 01:30:46;;;;;;;41.03;26.77;;;;;;;9.91;100.00;94856.69;5034122;28;20290;-86
2022/11/07 01:33:16;;;;;;;41.20;27.77;;;;;;;9.58;100.00;94862.81;5033853;28;20238;-87
2022/11/07 01:35:43;;;;;;;43.37;28.07;;;;;;;9.26;100.00;94855.19;5024627;28;20215;-85
2022/11/07 01:38:10;;;;;;;48.27;28.90;;;;;;;9.18;100.00;94850.22;5033068;28;20213;-85
2022/11/07 01:41:20;;;;;;;51.37;29.27;;;;;;;9.33;100.00;94851.56;5032720;28;20581;-86
2022/11/07 01:43:47;;;;;;;49.00;30.80;;;;;;;9.51;100.00;94853.50;5026251;28;20268;-84
2022/11/07 01:46:15;;;;;;;41.57;29.07;;;;;;;9.45;100.00;94836.94;5033010;28;20210;-84
2022/11/07 01:48:46;;;;;;;46.00;28.53;;;;;;;9.75;100.00;94862.38;5040987;28;20295;-86
2022/11/07 01:51:14;;;;;;;45.83;29.10;;;;;;;9.82;100.00;94863.13;5037196;28;20573;-85
2022/11/07 01:53:42;;;;;;;47.10;28.77;;;;;;;9.85;100.00;94862.69;5027729;28;20553;-88
2022/11/07 01:56:14;;;;;;;41.57;27.73;;;;;;;9.88;100.00;94868.28;5034663;28;20207;-87
2022/11/07 01:58:42;;;;;;;44.40;29.37;;;;;;;9.85;100.00;94857.50;5036532;28;20791;-88
2022/11/07 02:01:10;;;;;;;50.93;31.60;;;;;;;9.94;100.00;94864.84;5030883;28;20215;-85
2022/11/07 02:03:37;;;;;;;47.30;30.30;;;;;;;9.94;100.00;94870.03;5034344;28;20234;-85
2022/11/07 02:06:09;;;;;;;48.23;31.10;;;;;;;10.00;100.00;94866.63;5033228;28;20201;-89
2022/11/07 02:08:39;;;;;;;50.50;30.87;;;;;;;9.93;100.00;94873.63;5034996;28;20716;-88
2022/11/07 02:11:08;;;;;;;50.87;31.73;;;;;;;9.95;100.00;94869.06;5029683;28;20195;-89
2022/11/07 02:13:35;;;;;;;44.23;30.07;;;;;;;9.97;100.00;94868.84;5032214;28;20222;-85
2022/11/07 02:16:04;;;;;;;46.33;30.30;;;;;;;10.00;100.00;94871.81;5031463;28;20215;-88
2022/11/07 02:18:35;;;;;;;50.60;31.07;;;;;;;9.98;100.00;94870.44;5038004;28;21629;-85
2022/11/07 02:21:09;;;;;;;46.83;30.30;;;;;;;9.86;100.00;94872.91;5032261;28;20238;-84
2022/11/07 02:23:43;;;;;;;46.23;30.00;;;;;;;9.44;100.00;94870.88;5039299;28;20214;-85
2022/11/07 02:26:12;;;;;;;53.30;33.00;;;;;;;9.07;100.00;94869.78;5031222;28;20662;-88
2022/11/07 02:28:40;;;;;;;59.43;33.80;;;;;;;9.02;100.00;94869.59;5040481;28;20207;-87
2022/11/07 02:31:07;;;;;;;54.87;33.17;;;;;;;9.09;100.00;94873.75;5033602;28;21528;-82
2022/11/07 02:33:34;;;;;;;57.10;32.60;;;;;;;9.10;100.00;94867.59;5033906;28;20207;-81
2022/11/07 02:36:01;;;;;;;46.20;31.07;;;;;;;9.19;100.00;94868.16;5029595;28;20649;-82
2022/11/07 02:38:31;;;;;;;52.00;31.53;;;;;;;9.24;100.00;94859.75;5033648;28;20988;-83
2022/11/07 02:41:02;;;;;;;49.20;30.47;;;;;;;9.04;100.00;94875.38;5030888;28;20203;-81
2022/11/07 02:43:32;;;;;;;49.03;29.93;;;;;;;8.67;100.00;94871.66;5033873;28;20210;-82
2022/11/07 02:46:02;;;;;;;53.97;32.00;;;;;;;8.72;100.00;94871.03;5028970;28;20201;-82
2022/11/07 02:48:30;;;;;;;53.23;31.87;;;;;;;8.89;100.00;94862.63;5031022;28;20198;-82
2022/11/07 02:50:57;;;;;;;48.53;31.03;;;;;;;9.06;100.00;94863.03;5018448;28;20223;-78
2022/11/07 02:53:24;;;;;;;48.37;31.17;;;;;;;9.20;100.00;94858.59;5012144;28;20269;-79
2022/11/07 02:55:51;;;;;;;52.43;31.90;;;;;;;9.34;100.00;94862.75;5012725;28;20614;-78
2022/11/07 02:58:18;;;;;;;49.60;31.30;;;;;;;9.39;100.00;94866.31;5017563;28;20199;-78
2022/11/07 03:00:46;;;;;;;52.83;31.83;;;;;;;9.49;100.00;94865.88;5017495;28;20217;-79
2022/11/07 03:03:13;;;;;;;52.77;30.97;;;;;;;9.61;100.00;94864.22;5013403;28;20211;-79
2022/11/07 03:05:40;;;;;;;47.33;30.50;;;;;;;9.60;100.00;94870.41;5019480;28;20233;-80
2022/11/07 03:08:07;;;;;;;52.90;30.77;;;;;;;9.59;100.00;94869.63;5019205;28;20230;-80
2022/11/07 03:10:34;;;;;;;57.67;31.33;;;;;;;9.63;100.00;94867.41;5015010;28;20659;-79
2022/11/07 03:13:01;;;;;;;55.20;30.30;;;;;;;9.69;100.00;94864.00;5022651;28;20210;-83
2022/11/07 03:15:28;;;;;;;49.77;29.90;;;;;;;9.70;100.00;94870.75;5027111;28;20226;-82
2022/11/07 03:17:58;;;;;;;50.93;28.00;;;;;;;9.70;100.00;94870.75;5036878;28;20203;-82
2022/11/07 03:20:26;;;;;;;43.27;25.57;;;;;;;9.63;100.00;94870.00;5025440;28;20554;-82
2022/11/07 03:22:52;;;;;;;37.70;25.00;;;;;;;9.52;100.00;94868.84;5038066;28;20237;-83
2022/11/07 03:25:19;;;;;;;44.50;26.43;;;;;;;9.59;100.00;94886.97;5036793;28;20223;-82
2022/11/07 03:27:47;;;;;;;42.20;26.67;;;;;;;9.59;100.00;94889.56;5029198;28;20215;-83
2022/11/07 03:30:14;;;;;;;43.03;25.90;;;;;;;9.58;100.00;94872.44;5034970;28;20203;-88
2022/11/07 03:32:41;;;;;;;42.07;25.23;;;;;;;9.66;100.00;94896.34;5035187;28;20272;-84
2022/11/07 03:35:10;;;;;;;39.03;25.10;;;;;;;9.36;100.00;94902.22;5030710;28;20202;-83
2022/11/07 03:37:37;;;;;;;44.87;28.00;;;;;;;9.12;100.00;94899.28;5035871;28;20214;-87
2022/11/07 03:40:05;;;;;;;50.30;31.27;;;;;;;8.93;100.00;94901.91;5044166;28;20206;-88
2022/11/07 03:42:38;;;;;;;43.33;26.13;;;;;;;8.89;100.00;94904.09;5032047;28;20194;-85
2022/11/07 03:45:06;;;;;;;46.33;28.07;;;;;;;8.99;100.00;94903.69;5037056;28;20206;-87
2022/11/07 03:47:33;;;;;;;43.00;26.57;;;;;;;9.07;100.00;94909.47;5020594;28;20249;-80
2022/11/07 03:50:00;;;;;;;47.07;26.27;;;;;;;9.07;100.00;94906.06;5028253;28;20208;-80
2022/11/07 03:52:28;;;;;;;45.43;26.30;;;;;;;8.71;100.00;94916.91;5034879;28;20203;-93
2022/11/07 03:54:55;;;;;;;46.10;25.93;;;;;;;8.51;100.00;94926.44;5048176;28;20260;-94
2022/11/07 03:57:22;;;;;;;41.70;26.87;;;;;;;8.69;100.00;94915.47;5041393;28;20198;-91
2022/11/07 03:59:49;;;;;;;43.93;26.87;;;;;;;8.87;100.00;94924.25;5037642;28;20195;-81
2022/11/07 04:02:17;;;;;;;58.43;33.63;;;;;;;8.98;100.00;94920.25;5032924;28;20206;-81
2022/11/07 04:04:44;;;;;;;57.67;32.40;;;;;;;9.00;100.00;94921.63;5031424;28;20222;-82
2022/11/07 04:07:11;;;;;;;46.87;28.03;;;;;;;8.87;100.00;94913.09;5034921;28;20865;-82
2022/11/07 04:09:39;;;;;;;40.67;25.90;;;;;;;8.90;100.00;94925.63;5022630;28;20217;-81
2022/11/07 04:17:36;;;;;;;35.67;23.80;;;;;;;8.94;100.00;94935.41;5030528;28;20252;-81
2022/11/07 04:20:04;;;;;;;29.87;20.77;;;;;;;8.92;100.00;94927.03;5037794;28;20210;-82
2022/11/07 04:22:31;;;;;;;31.90;19.93;;;;;;;8.97;100.00;94923.84;5032512;28;20229;-81
2022/11/07 04:24:59;;;;;;;34.73;20.27;;;;;;;8.98;100.00;94931.41;5030764;28;20234;-81
2022/11/07 04:27:45;;;;;;;28.67;19.90;;;;;;;9.08;100.00;94939.59;5036646;28;20202;-81
2022/11/07 04:30:23;;;;;;;33.23;20.33;;;;;;;9.10;100.00;94932.41;5032375;28;20586;-86
2022/11/07 04:32:52;;;;;;;32.37;20.57;;;;;;;9.15;100.00;94943.97;5034889;28;20213;-89
2022/11/07 04:35:19;;;;;;;36.60;20.50;;;;;;;9.19;100.00;94924.41;5042442;28;20625;-85
2022/11/07 04:37:47;;;;;;;32.73;20.70;;;;;;;9.28;100.00;94930.97;5046204;28;20196;-87
2022/11/07 04:40:16;;;;;;;39.40;21.43;;;;;;;9.32;100.00;94943.31;5043816;28;20191;-86
2022/11/07 04:42:43;;;;;;;32.87;20.20;;;;;;;9.39;100.00;94933.75;5045800;28;20244;-84
2022/11/07 04:45:11;;;;;;;31.63;20.50;;;;;;;9.36;100.00;94926.38;5035516;28;20265;-85
2022/11/07 04:47:38;;;;;;;35.93;21.40;;;;;;;9.05;100.00;94924.44;5033329;28;20229;-86
2022/11/07 04:50:07;;;;;;;32.37;21.03;;;;;;;8.87;100.00;94939.78;5030996;28;20202;-85
2022/11/07 04:52:34;;;;;;;38.50;22.60;;;;;;;8.65;100.00;94945.38;5035246;28;20209;-84
2022/11/07 04:55:01;;;;;;;39.10;23.10;;;;;;;8.68;100.00;94939.81;5040841;28;20201;-83
2022/11/07 04:57:29;;;;;;;41.80;24.20;;;;;;;8.84;100.00;94952.34;5040177;28;20198;-84
2022/11/07 04:59:56;;;;;;;37.07;23.73;;;;;;;8.68;100.00;94950.97;5037377;28;20211;-83
2022/11/07 05:02:24;;;;;;;39.83;23.40;;;;;;;8.60;100.00;94958.13;5041169;28;20321;-83
2022/11/07 05:04:51;;;;;;;36.20;24.03;;;;;;;8.59;100.00;94952.16;5033229;28;20226;-83
2022/11/07 05:07:21;;;;;;;47.47;28.10;;;;;;;8.64;100.00;94939.41;5032705;28;20199;-84
2022/11/07 05:09:49;;;;;;;51.43;32.37;;;;;;;8.88;100.00;94950.97;5040137;28;20640;-88
2022/11/07 05:12:16;;;;;;;50.17;33.43;;;;;;;8.95;100.00;94944.78;5034440;28;20218;-81
2022/11/07 05:14:44;;;;;;;48.47;31.87;;;;;;;9.02;100.00;94942.19;5029120;28;20200;-82
2022/11/07 05:17:14;;;;;;;43.53;29.20;;;;;;;9.25;100.00;94954.72;5035797;28;20207;-83
2022/11/07 05:19:42;;;;;;;44.07;26.90;;;;;;;9.33;100.00;94960.50;5037522;28;20229;-82
2022/11/07 05:24:53;;;;;;;40.43;26.27;;;;;;;9.50;100.00;94972.03;5030080;28;20687;-81
2022/11/07 05:27:22;;;;;;;49.13;27.57;;;;;;;9.58;100.00;94974.41;5033264;28;20212;-82
2022/11/07 05:29:50;;;;;;;42.07;25.27;;;;;;;9.66;100.00;94969.00;5029436;28;20242;-83
2022/11/07 05:32:17;;;;;;;45.97;25.77;;;;;;;9.64;100.00;94960.59;5032813;28;20199;-84
2022/11/07 05:34:44;;;;;;;37.70;24.07;;;;;;;9.80;100.00;94974.94;5032441;28;20210;-84
2022/11/07 05:37:12;;;;;;;42.87;24.53;;;;;;;9.87;100.00;94975.69;5029205;28;20210;-84
2022/11/07 05:39:39;;;;;;;38.63;25.00;;;;;;;9.93;100.00;94977.47;5041881;28;20210;-85
2022/11/07 05:42:06;;;;;;;41.63;23.73;;;;;;;9.97;100.00;94983.06;5033332;28;20206;-86
2022/11/07 05:44:33;;;;;;;40.33;24.80;;;;;;;10.06;100.00;94997.41;5027142;28;20219;-85
2022/11/07 05:47:02;;;;;;;37.30;24.67;;;;;;;10.13;100.00;94988.63;5033527;28;20197;-84
2022/11/07 05:49:29;;;;;;;46.43;25.73;;;;;;;10.18;100.00;94991.41;5022287;28;20674;-83
2022/11/07 05:51:57;;;;;;;40.33;23.93;;;;;;;10.05;100.00;94977.63;5026519;28;20222;-85
2022/11/07 05:54:26;;;;;;;38.80;23.23;;;;;;;10.09;100.00;94990.00;5032381;28;20650;-79
2022/11/07 05:56:56;;;;;;;47.47;24.67;;;;;;;10.15;100.00;94993.63;5035405;28;20362;-87
2022/11/07 05:59:23;;;;;;;41.27;23.83;;;;;;;10.00;100.00;95004.22;5031014;28;20249;-81
2022/11/07 06:01:52;;;;;;;42.63;24.63;;;;;;;9.71;100.00;95002.13;5027655;28;20204;-82
2022/11/07 06:04:20;;;;;;;51.33;25.43;;;;;;;9.53;100.00;94994.16;5025704;28;20209;-85
2022/11/07 06:06:47;;;;;;;49.50;24.63;;;;;;;9.57;100.00;94997.97;5025418;28;20201;-84
2022/11/07 06:09:14;;;;;;;39.90;25.33;;;;;;;9.78;100.00;95015.09;4995180;28;20203;-81
2022/11/07 06:11:41;;;;;;;43.80;25.50;;;;;;;9.93;100.00;95011.22;5033598;28;20215;-82
2022/11/07 06:14:08;;;;;;;44.43;25.57;;;;;;;10.03;100.00;95003.81;5028839;28;20210;-82
2022/11/07 06:16:35;;;;;;;43.00;26.47;;;;;;;10.13;100.00;95017.19;5024701;28;20258;-81
2022/11/07 06:19:02;;;;;;;52.30;27.33;;;;;;;10.25;100.00;95010.34;5020602;28;20689;-82
2022/11/07 06:21:30;;;;;;;60.03;28.90;;;;;;;10.38;100.00;95014.69;5035044;28;20640;-83
2022/11/07 06:23:58;;;;;;;42.27;26.70;;;;;;;10.48;100.00;95014.22;5030581;28;20210;-81
2022/11/07 06:26:26;;;;;;;40.60;26.17;;;;;;;10.63;100.00;95022.53;5030888;28;20691;-82
2022/11/07 06:28:53;;;;;;;46.47;28.13;;;;;;;10.79;100.00;95022.84;5032741;28;20233;-82
2022/11/07 06:31:20;;;;;;;49.87;28.83;;;;;;;10.92;100.00;95028.97;5035707;28;20308;-81
2022/11/07 06:33:49;;;;;;;42.73;27.27;;;;;;;11.02;100.00;95030.09;5043273;28;20205;-81
2022/11/07 06:36:16;;;;;;;48.47;27.57;;;;;;;11.18;100.00;95039.19;5028459;28;20235;-83
2022/11/07 06:38:45;;;;;;;45.33;27.70;;;;;;;11.31;100.00;95045.06;5024492;28;20659;-83
2022/11/07 06:41:13;;;;;;;55.20;27.07;;;;;;;11.40;100.00;95038.59;5029899;28;20228;-84
2022/11/07 06:43:41;;;;;;;48.93;27.33;;;;;;;11.57;100.00;95041.44;5036975;28;20261;-84
2022/11/07 06:46:10;;;;;;;46.07;27.27;;;;;;;11.65;100.00;95045.59;5026560;28;20222;-81
2022/11/07 06:48:37;;;;;;;46.27;27.57;;;;;;;11.73;100.00;95053.16;5024388;28;20214;-81
2022/11/07 06:51:06;;;;;;;48.50;27.73;;;;;;;11.81;100.00;95045.06;5028671;28;20581;-83
2022/11/07 06:53:34;;;;;;;54.30;27.93;;;;;;;11.87;100.00;95052.81;5020058;28;20212;-83
2022/11/07 06:56:04;;;;;;;51.97;28.13;;;;;;;11.94;100.00;95057.97;5036986;28;20194;-83
2022/11/07 06:58:31;;;;;;;48.43;28.00;;;;;;;12.05;100.00;95061.66;5030378;28;20206;-82
2022/11/07 07:01:01;;;;;;;47.67;27.77;;;;;;;12.11;100.00;95058.97;5035892;28;20205;-84
2022/11/07 07:03:27;;;;;;;55.63;27.63;;;;;;;12.17;100.00;95062.53;5026148;28;20199;-81
2022/11/07 07:05:54;;;;;;;46.93;28.63;;;;;;;12.25;100.00;95060.44;5025865;28;20215;-82
2022/11/07 07:08:21;;;;;;;49.47;29.23;;;;;;;12.19;100.00;95056.09;5017143;28;20198;-81
2022/11/07 07:10:48;;;;;;;49.33;28.70;;;;;;;12.20;100.00;95055.09;5018850;28;20697;-82
2022/11/07 07:13:16;;;;;;;57.73;30.37;;;;;;;12.28;100.00;95044.34;5018557;28;20603;-82
2022/11/07 07:15:43;;;;;;;54.37;31.77;;;;;;;12.34;100.00;95053.91;5019609;28;20202;-82
2022/11/07 07:18:10;;;;;;;54.07;31.73;;;;;;;12.10;100.00;95064.41;5022413;28;20210;-81
2022/11/07 07:20:37;;;;;;;54.63;32.03;;;;;;;11.80;100.00;95062.47;5023717;28;20214;-82
2022/11/07 07:23:03;;;;;;;56.03;32.47;;;;;;;11.60;100.00;95058.47;5027666;28;20608;-83
2022/11/07 07:25:30;;;;;;;57.67;33.50;;;;;;;11.74;100.00;95073.78;5010939;28;20811;-83
2022/11/07 07:27:57;;;;;;;54.50;32.37;;;;;;;11.88;100.00;95074.44;5022397;28;20206;-82
2022/11/07 07:30:25;;;;;;;59.83;33.47;;;;;;;12.07;100.00;95062.22;5022782;28;20234;-82
2022/11/07 07:32:52;;;;;;;57.73;34.57;;;;;;;12.13;100.00;95050.94;5031765;28;20210;-83
2022/11/07 07:35:20;;;;;;;67.80;34.70;;;;;;;12.29;100.00;95063.41;5026254;28;20195;-82
2022/11/07 07:37:50;;;;;;;68.67;34.03;;;;;;;12.43;100.00;95070.84;5034193;28;20194;-85
2022/11/07 07:40:17;;;;;;;66.40;36.33;;;;;;;12.44;100.00;95064.59;5032723;28;20209;-86
2022/11/07 07:42:45;;;;;;;63.13;35.70;;;;;;;12.59;100.00;95074.66;5033113;28;20206;-88
2022/11/07 07:45:13;;;;;;;61.63;33.13;;;;;;;12.68;100.00;95070.72;5034784;28;20271;-87
2022/11/07 07:47:42;;;;;;;60.27;32.93;;;;;;;12.79;100.00;95069.97;5030970;28;20230;-89
2022/11/07 07:50:11;;;;;;;56.90;33.53;;;;;;;12.77;100.00;95068.63;5033635;28;20206;-88
2022/11/07 07:52:38;;;;;;;56.83;31.43;;;;;;;12.77;100.00;95066.81;5027987;28;20202;-85
2022/11/07 07:55:06;;;;;;;51.63;32.63;;;;;;;12.92;100.00;95069.81;5022474;28;20211;-86
2022/11/07 07:57:38;;;;;;;52.23;32.17;;;;;;;13.04;100.00;95078.47;5027756;28;20595;-86
2022/11/07 08:00:06;;;;;;;53.17;32.00;;;;;;;13.20;100.00;95071.06;5035433;28;20657;-86
2022/11/07 08:02:33;;;;;;;60.00;32.67;;;;;;;13.32;100.00;95074.50;5031019;28;20208;-76
2022/11/07 08:05:01;;;;;;;58.23;31.33;;;;;;;13.38;100.00;95082.22;5019908;28;20199;-79
2022/11/07 08:07:28;;;;;;;50.60;29.80;;;;;;;13.41;100.00;95083.59;5022569;28;20207;-81
2022/11/07 08:09:55;;;;;;;50.00;29.77;;;;;;;13.48;100.00;95072.00;5021767;28;20218;-79
2022/11/07 08:12:22;;;;;;;47.30;30.20;;;;;;;13.57;100.00;95086.34;5037226;28;20210;-81
2022/11/07 08:14:49;;;;;;;54.60;30.40;;;;;;;13.36;100.00;95075.66;5028262;28;20605;-82
2022/11/07 08:17:15;;;;;;;50.63;29.10;;;;;;;13.02;100.00;95064.84;5025250;28;20207;-84
2022/11/07 08:19:42;;;;;;;47.03;28.67;;;;;;;12.78;100.00;95070.22;5029319;28;20210;-83
2022/11/07 08:22:11;;;;;;;55.43;30.13;;;;;;;12.81;100.00;95064.56;5025956;28;20242;-82
2022/11/07 08:24:38;;;;;;;53.73;29.60;;;;;;;12.93;100.00;95057.56;5037287;28;20211;-82
2022/11/07 08:27:04;;;;;;;53.90;29.10;;;;;;;13.20;100.00;95068.44;5028453;28;20223;-81
2022/11/07 08:29:31;;;;;;;53.17;28.13;;;;;;;13.38;100.00;95070.97;5029092;28;20638;-83
2022/11/07 08:31:58;;;;;;;50.70;28.93;;;;;;;13.60;100.00;95072.81;5027824;28;20218;-85
2022/11/07 08:34:25;;;;;;;50.70;30.73;;;;;;;13.78;100.00;95071.13;5038595;28;20275;-82
2022/11/07 08:36:52;;;;;;;54.97;29.93;;;;;;;13.97;100.00;95077.81;5033361;28;20202;-80
2022/11/07 08:39:20;;;;;;;51.27;30.67;;;;;;;13.87;100.00;95069.78;5022898;28;20199;-80
2022/11/07 08:41:47;;;;;;;48.17;30.97;;;;;;;13.73;100.00;95078.88;5022565;28;20274;-82
2022/11/07 08:44:14;;;;;;;53.47;31.13;;;;;;;13.50;100.00;95077.03;5031785;28;20206;-83
2022/11/07 08:46:41;;;;;;;58.57;33.57;;;;;;;13.61;100.00;95078.84;5028370;28;20223;-82
2022/11/07 08:49:07;;;;;;;49.67;30.83;;;;;;;13.54;100.00;95076.34;5027808;28;20869;-83
2022/11/07 08:51:34;;;;;;;52.60;32.37;;;;;;;13.36;100.00;95073.03;5029048;28;20211;-82
2022/11/07 08:54:01;;;;;;;50.70;31.10;;;;;;;13.34;100.00;95056.78;5017701;28;20199;-81
2022/11/07 08:56:30;;;;;;;56.43;30.70;;;;;;;13.40;100.00;95069.75;5018662;28;20195;-82
2022/11/07 08:58:57;;;;;;;59.77;32.50;;;;;;;13.44;100.00;95072.69;5024946;28;20625;-81
2022/11/07 09:01:26;;;;;;;46.80;29.10;;;;;;;13.61;100.00;95058.75;5017297;28;20194;-83
2022/11/07 09:03:53;;;;;;;54.87;29.03;;;;;;;14.10;100.00;95077.59;5016057;28;20533;-82
2022/11/07 09:06:21;;;;;;;50.50;26.13;;;;;;;14.56;100.00;95079.38;5024819;28;20295;-80
2022/11/07 09:08:48;;;;;;;41.70;25.77;;;;;;;15.11;100.00;95092.72;5016991;28;20203;-80
2022/11/07 09:11:17;;;;;;;42.57;23.03;;;;;;;15.52;100.00;95087.19;5023059;28;20535;-78
2022/11/07 09:13:46;;;;;;;46.17;25.10;;;;;;;16.21;97.45;95087.69;5022505;28;20310;-80
2022/11/07 09:16:16;;;;;;;39.93;23.93;;;;;;;17.18;94.42;95085.16;5025657;28;20578;-81
2022/11/07 09:18:43;;;;;;;44.60;24.87;;;;;;;18.06;87.56;95085.41;5013759;28;20206;-81
2022/11/07 09:21:10;;;;;;;38.80;23.13;;;;;;;18.82;83.56;95096.34;5030628;28;20214;-80
2022/11/07 09:23:37;;;;;;;41.80;23.10;;;;;;;19.52;80.67;95087.84;5018389;28;20279;-80
2022/11/07 09:26:04;;;;;;;38.80;23.07;;;;;;;20.00;78.26;95098.94;5020987;28;20207;-81
2022/11/07 09:28:31;;;;;;;39.17;23.53;;;;;;;19.94;76.96;95082.28;5021501;28;20205;-80
2022/11/07 09:31:01;;;;;;;42.33;24.95;;;;;;;20.20;75.70;95098.91;5017179;28;20186;-85
2022/11/07 09:33:28;;;;;;;37.90;22.23;;;;;;;20.29;74.92;95090.19;5023763;28;20194;-81
2022/11/07 09:35:58;;;;;;;29.75;19.08;;;;;;;20.03;73.18;95086.00;5024504;28;20187;-86
2022/11/07 09:38:25;;;;;;;27.52;18.00;;;;;;;19.76;72.48;95077.56;5027358;28;20199;-82
2022/11/07 09:41:03;;;;;;;27.80;17.67;;;;;;;19.42;72.82;95073.88;5019079;28;20286;-83
2022/11/07 09:43:46;;;;;;;32.45;18.27;;;;;;;19.11;73.59;95081.69;5023029;28;20203;-79
2022/11/07 09:46:26;;;;;;;33.28;18.92;;;;;;;18.63;74.13;95082.06;5021117;28;20705;-80
2022/11/07 09:48:59;;;;;;;31.95;18.80;;;;;;;18.04;76.58;95086.69;5018657;28;20195;-80
2022/11/07 09:51:32;;;;;;;33.77;19.43;;;;;;;16.71;81.98;95074.44;5018040;28;20381;-80
2022/11/07 09:54:05;;;;;;;26.33;18.67;;;;;;;15.88;85.53;95064.91;5013520;28;20206;-80
2022/11/07 09:56:33;;;;;;;28.87;19.73;;;;;;;15.63;86.49;95067.97;5017588;28;20183;-82
2022/11/07 09:59:05;;;;;;;35.33;19.70;;;;;;;15.87;86.04;95073.84;5017072;28;20285;-82
2022/11/07 10:01:34;;;;;;;34.33;19.40;;;;;;;15.94;85.37;95071.03;5016390;28;20203;-82
2022/11/07 10:04:01;;;;;;;37.70;19.63;;;;;;;15.97;85.48;95062.69;5016034;28;20247;-80
2022/11/07 10:06:32;;;;;;;35.20;20.43;;;;;;;15.95;85.17;95052.44;5018997;28;20297;-83
2022/11/07 10:09:12;;;;;;;30.23;19.57;;;;;;;16.19;85.21;95058.28;5023539;28;20689;-83
2022/11/07 10:11:42;;;;;;;33.50;20.17;;;;;;;16.40;83.78;95057.47;5019470;28;20195;-84
2022/11/07 10:14:19;;;;;;;33.67;19.57;;;;;;;17.18;83.53;95062.31;5028832;28;20191;-83
2022/11/07 10:17:03;;;;;;;31.10;19.53;;;;;;;17.76;79.29;95063.34;5031552;28;20634;-84
2022/11/07 10:19:49;;;;;;;33.63;20.20;;;;;;;17.89;78.94;95066.34;5015297;28;20202;-84
2022/11/07 10:22:39;;;;;;;33.07;20.10;;;;;;;18.03;77.63;95059.63;5031350;28;20241;-84
2022/11/07 10:25:21;;;;;;;36.03;20.13;;;;;;;18.20;77.27;95056.03;5011887;28;20667;-85
2022/11/07 10:27:58;;;;;;;32.13;20.53;;;;;;;18.34;76.54;95057.94;5011643;28;20219;-85
2022/11/07 10:30:28;;;;;;;26.77;18.23;;;;;;;18.34;75.98;95055.31;5020248;28;20642;-86
2022/11/07 10:33:07;;;;;;;31.33;18.43;;;;;;;17.93;76.77;95038.50;5012390;28;20246;-86
2022/11/07 10:35:38;;;;;;;27.93;18.67;;;;;;;17.37;78.57;95045.13;5012333;28;20664;-85
2022/11/07 10:38:17;;;;;;;30.77;19.47;;;;;;;17.16;80.70;95040.78;5013274;28;20307;-84
2022/11/07 10:40:46;;;;;;;31.70;19.23;;;;;;;17.31;79.81;95027.78;5023296;28;20252;-88
2022/11/07 10:43:19;;;;;;;24.70;18.33;;;;;;;17.07;80.01;95017.81;5027318;28;20198;-84
2022/11/07 10:45:47;;;;;;;29.00;19.37;;;;;;;17.36;79.37;95003.34;5030887;28;20241;-85
2022/11/07 10:48:15;;;;;;;26.53;17.80;;;;;;;18.62;76.58;95023.34;5019945;28;20196;-85
2022/11/07 10:50:51;;;;;;;29.23;17.53;;;;;;;19.53;72.20;95022.72;5018185;28;20198;-86
2022/11/07 10:53:19;;;;;;;30.17;16.93;;;;;;;20.30;69.92;94990.66;5031199;28;20221;-85
2022/11/07 10:55:48;;;;;;;28.60;16.83;;;;;;;21.60;67.28;95033.28;5032991;28;20202;-87
2022/11/07 10:58:19;;;;;;;34.40;17.42;;;;;;;22.71;62.05;95045.47;5031371;28;20201;-86
2022/11/07 11:00:58;;;;;;;33.90;19.17;;;;;;;23.16;60.20;94999.78;5024864;28;20207;-87
2022/11/07 11:03:30;;;;;;;29.52;16.83;;;;;;;23.98;58.04;95033.78;5029792;28;20201;-87
2022/11/07 11:06:08;;;;;;;29.50;17.17;;;;;;;24.20;57.13;95002.88;5028956;28;20205;-90
2022/11/07 11:08:37;;;;;;;33.05;18.30;;;;;;;24.28;55.36;95004.81;5032434;28;20282;-90
2022/11/07 11:11:14;;;;;;;27.23;16.60;;;;;;;24.59;55.86;95025.50;5032651;28;20635;-87
2022/11/07 11:13:41;;;;;;;25.25;15.35;;;;;;;24.53;53.24;95026.69;5031421;28;20209;-86
2022/11/07 11:16:21;;;;;;;26.00;15.70;;;;;;;24.68;53.40;95018.41;5031414;28;20199;-83
2022/11/07 11:18:51;;;;;;;25.38;15.85;;;;;;;24.93;52.22;95017.91;5024347;28;20218;-88
2022/11/07 11:21:18;;;;;;;29.38;15.43;;;;;;;24.60;52.90;95014.56;5013319;28;20580;-88
2022/11/07 11:23:46;;;;;;;22.33;14.80;;;;;;;24.53;53.36;95010.75;5029006;28;20250;-87
2022/11/07 11:26:20;;;;;;;24.25;15.02;;;;;;;24.34;54.22;95012.69;5022701;28;20238;-86
2022/11/07 11:28:52;;;;;;;29.40;15.00;;;;;;;24.80;52.99;95008.06;5026842;28;20217;-89
2022/11/07 11:31:25;;;;;;;26.13;15.18;;;;;;;25.32;51.22;95010.13;5028455;28;20274;-86
2022/11/07 11:33:57;;;;;;;23.45;15.18;;;;;;;25.35;51.23;95006.06;5018788;28;20701;-87